createdAt,value
2023-03-24T00:01:05.588Z,6.50
2023-03-24T00:03:39.962Z,6.60
2023-03-24T00:06:15.504Z,6.40
2023-03-24T00:08:49.633Z,6.20
2023-03-24T00:11:22.825Z,5.50
2023-03-24T00:13:58.807Z,6.20
2023-03-24T00:16:35.029Z,7.10
2023-03-24T00:19:07.810Z,5.90
2023-03-24T00:21:42.491Z,6.50
2023-03-24T00:24:16.395Z,6.70
2023-03-24T00:26:52.074Z,7.80
2023-03-24T00:29:25.857Z,6.40
2023-03-24T00:31:58.557Z,7.20
2023-03-24T00:34:31.446Z,6.80
2023-03-24T00:37:05.517Z,7.30
2023-03-24T00:39:38.019Z,7.10
2023-03-24T00:42:11.027Z,6.70
2023-03-24T00:47:18.299Z,7.00
2023-03-24T00:49:54.087Z,7.10
2023-03-24T00:52:34.387Z,6.80
2023-03-24T00:55:10.021Z,6.60
2023-03-24T00:57:50.165Z,7.10
2023-03-24T01:00:26.398Z,7.80
2023-03-24T01:03:03.686Z,6.80
2023-03-24T01:05:36.961Z,7.30
2023-03-24T01:08:11.484Z,8.00
2023-03-24T01:10:50.800Z,7.00
2023-03-24T01:13:24.826Z,6.80
2023-03-24T01:15:58.842Z,6.70
2023-03-24T01:18:31.654Z,7.30
2023-03-24T01:21:04.759Z,7.50
2023-03-24T01:23:38.152Z,7.90
2023-03-24T01:26:12.768Z,7.50
2023-03-24T01:28:45.549Z,7.00
2023-03-24T01:31:18.839Z,7.00
2023-03-24T01:36:22.610Z,6.90
2023-03-24T01:38:59.165Z,7.60
2023-03-24T01:41:39.146Z,7.50
2023-03-24T01:44:33.210Z,7.60
2023-03-24T01:47:19.104Z,7.20
2023-03-24T01:49:55.123Z,8.00
2023-03-24T01:52:30.877Z,8.20
2023-03-24T01:55:05.764Z,7.80
2023-03-24T01:57:42.777Z,8.00
2023-03-24T02:00:21.018Z,7.60
2023-03-24T02:03:23.514Z,7.00
2023-03-24T02:06:02.782Z,7.30
2023-03-24T02:08:42.757Z,7.80
2023-03-24T02:11:15.749Z,8.00
2023-03-24T02:13:55.454Z,7.50
2023-03-24T02:17:11.705Z,7.30
2023-03-24T02:20:14.027Z,6.90
2023-03-24T02:23:31.948Z,7.40
2023-03-24T02:26:33.883Z,6.80
2023-03-24T02:29:21.993Z,7.40
2023-03-24T02:32:11.257Z,7.80
2023-03-24T02:35:12.421Z,7.30
2023-03-24T02:38:16.477Z,7.50
2023-03-24T02:43:43.646Z,7.50
2023-03-24T02:46:25.627Z,7.40
2023-03-24T02:49:09.529Z,7.30
2023-03-24T02:51:49.684Z,7.20
2023-03-24T02:54:29.163Z,7.80
2023-03-24T02:57:11.539Z,7.40
2023-03-24T03:00:09.616Z,7.40
2023-03-24T03:03:17.984Z,7.30
2023-03-24T03:05:58.992Z,8.10
2023-03-24T03:08:35.625Z,8.30
2023-03-24T03:11:11.795Z,7.40
2023-03-24T03:13:50.822Z,6.90
2023-03-24T03:16:34.963Z,6.90
2023-03-24T03:19:12.927Z,6.60
2023-03-24T03:21:49.106Z,6.60
2023-03-24T03:24:28.251Z,6.10
2023-03-24T03:27:04.895Z,6.60
2023-03-24T03:29:42.397Z,6.00
2023-03-24T03:32:19.818Z,6.40
2023-03-24T03:34:58.660Z,5.20
2023-03-24T03:37:36.208Z,6.20
2023-03-24T03:40:13.481Z,5.70
2023-03-24T03:42:48.978Z,5.70
2023-03-24T03:47:55.285Z,6.60
2023-03-24T03:50:28.270Z,5.80
2023-03-24T03:53:02.941Z,5.90
2023-03-24T03:55:36.236Z,5.80
2023-03-24T04:00:47.408Z,5.80
2023-03-24T04:03:59.293Z,6.50
2023-03-24T04:07:08.577Z,6.40
2023-03-24T04:09:55.040Z,6.20
2023-03-24T04:12:58.276Z,6.60
2023-03-24T04:16:01.472Z,6.00
2023-03-24T04:19:07.259Z,6.50
2023-03-24T04:21:55.400Z,6.30
2023-03-24T04:24:41.503Z,6.60
2023-03-24T04:27:27.496Z,6.50
2023-03-24T04:30:10.867Z,6.50
2023-03-24T04:32:50.776Z,6.50
2023-03-24T04:35:33.207Z,6.80
2023-03-24T04:38:28.507Z,6.20
2023-03-24T04:41:18.211Z,6.70
2023-03-24T04:43:58.219Z,7.10
2023-03-24T04:46:31.570Z,6.50
2023-03-24T04:49:13.481Z,6.90
2023-03-24T04:51:47.896Z,6.40
2023-03-24T04:54:26.317Z,5.80
2023-03-24T04:57:06.295Z,6.90
2023-03-24T04:59:47.817Z,6.50
2023-03-24T05:02:21.878Z,7.00
2023-03-24T05:05:00.748Z,6.70
2023-03-24T05:07:39.123Z,6.60
2023-03-24T05:10:20.116Z,7.00
2023-03-24T05:12:58.742Z,5.90
2023-03-24T05:16:03.876Z,6.10
2023-03-24T05:18:59.374Z,6.70
2023-03-24T05:21:35.273Z,6.20
2023-03-24T05:24:08.957Z,5.70
2023-03-24T05:29:20.599Z,5.80
2023-03-24T05:31:54.536Z,5.90
2023-03-24T05:34:28.272Z,5.70
2023-03-24T05:37:17.233Z,5.30
2023-03-24T05:39:56.002Z,5.20
2023-03-24T05:42:51.177Z,5.60
2023-03-24T05:45:25.487Z,5.50
2023-03-24T05:47:58.792Z,5.60
2023-03-24T05:50:42.740Z,6.40
2023-03-24T05:53:15.440Z,5.80
2023-03-24T05:56:13.450Z,6.30
2023-03-24T05:59:04.694Z,6.20
2023-03-24T06:02:15.635Z,7.10
2023-03-24T06:04:54.003Z,6.90
2023-03-24T06:07:31.165Z,7.20
2023-03-24T06:10:05.243Z,7.50
2023-03-24T06:12:44.700Z,8.30
2023-03-24T06:15:17.817Z,9.30
2023-03-24T06:17:55.158Z,10.20
2023-03-24T06:20:37.724Z,12.40
2023-03-24T06:23:13.025Z,11.50
2023-03-24T06:26:01.757Z,13.50
2023-03-24T06:28:35.665Z,11.80
2023-03-24T06:31:19.691Z,11.80
2023-03-24T06:33:52.805Z,11.10
2023-03-24T06:36:26.178Z,12.40
2023-03-24T06:41:30.075Z,10.40
2023-03-24T06:44:04.675Z,12.30
2023-03-24T06:46:37.711Z,12.20
2023-03-24T06:49:10.528Z,11.30
2023-03-24T06:51:43.045Z,10.50
2023-03-24T06:54:17.744Z,11.40
2023-03-24T06:56:50.828Z,11.20
2023-03-24T06:59:25.236Z,10.50
2023-03-24T07:01:57.812Z,10.60
2023-03-24T07:04:36.857Z,10.80
2023-03-24T07:08:08.277Z,10.20
2023-03-24T07:10:48.026Z,11.50
2023-03-24T07:13:22.949Z,11.60
2023-03-24T07:15:56.440Z,13.10
2023-03-24T07:18:29.198Z,12.40
2023-03-24T07:21:09.068Z,11.10
2023-03-24T07:23:42.214Z,11.90
2023-03-24T07:26:39.113Z,12.60
2023-03-24T07:29:23.408Z,11.80
2023-03-24T07:32:13.210Z,11.30
2023-03-24T07:34:47.379Z,10.90
2023-03-24T07:37:20.386Z,11.30
2023-03-24T07:39:54.586Z,11.10
2023-03-24T07:42:27.381Z,11.60
2023-03-24T07:45:38.194Z,9.30
2023-03-24T07:48:11.706Z,11.80
2023-03-24T07:50:44.726Z,10.50
2023-03-24T07:53:35.779Z,10.40
2023-03-24T07:56:09.708Z,10.80
2023-03-24T07:58:47.697Z,10.90
2023-03-24T08:01:30.612Z,10.90
2023-03-24T08:04:05.132Z,10.00
2023-03-24T08:06:56.170Z,9.90
2023-03-24T08:09:29.156Z,10.50
2023-03-24T08:12:09.977Z,10.30
2023-03-24T08:14:54.842Z,10.00
2023-03-24T08:17:27.439Z,10.20
2023-03-24T08:20:02.049Z,10.70
2023-03-24T08:22:36.403Z,10.10
2023-03-24T08:27:45.337Z,9.50
2023-03-24T08:30:21.469Z,9.90
2023-03-24T08:32:56.584Z,9.60
2023-03-24T08:35:31.796Z,9.30
2023-03-24T08:38:07.003Z,8.00
2023-03-24T08:40:42.388Z,9.20
2023-03-24T08:43:17.883Z,9.50
2023-03-24T08:45:50.888Z,9.60
2023-03-24T08:48:24.248Z,9.90
2023-03-24T08:50:57.325Z,9.60
2023-03-24T08:53:29.846Z,9.10
2023-03-24T08:56:03.267Z,9.10
2023-03-24T08:58:37.869Z,10.00
2023-03-24T09:01:10.633Z,10.00
2023-03-24T09:03:45.123Z,9.00
2023-03-24T09:06:17.987Z,9.90
2023-03-24T09:08:50.875Z,9.10
2023-03-24T09:11:24.866Z,9.50
2023-03-24T09:13:58.110Z,9.60
2023-03-24T09:16:30.893Z,9.30
2023-03-24T09:19:03.656Z,8.70
2023-03-24T09:21:36.362Z,9.70
2023-03-24T09:24:09.704Z,9.60
2023-03-24T09:26:42.739Z,9.20
2023-03-24T09:29:15.298Z,9.60
2023-03-24T09:31:47.893Z,9.30
2023-03-24T09:34:20.349Z,9.30
2023-03-24T09:36:55.689Z,8.60
2023-03-24T09:39:28.539Z,7.00
2023-03-24T09:42:01.376Z,8.10
2023-03-24T09:44:38.190Z,6.80
2023-03-24T09:47:28.684Z,7.60
2023-03-24T09:50:04.592Z,7.60
2023-03-24T09:52:44.785Z,8.10
2023-03-24T09:55:23.071Z,9.80
2023-03-24T09:57:58.892Z,9.80
2023-03-24T10:00:33.296Z,10.10
2023-03-24T10:03:23.544Z,9.80
2023-03-24T10:06:00.317Z,9.90
2023-03-24T10:08:37.728Z,16.80
2023-03-24T10:11:18.773Z,17.60
2023-03-24T10:14:05.396Z,10.30
2023-03-24T10:16:43.584Z,9.70
2023-03-24T10:19:30.538Z,9.60
2023-03-24T10:22:12.642Z,9.80
2023-03-24T10:24:53.013Z,10.50
2023-03-24T10:27:31.886Z,9.70
2023-03-24T10:30:13.885Z,9.90
2023-03-24T10:32:47.429Z,9.70
2023-03-24T10:35:24.957Z,10.00
2023-03-24T10:38:02.976Z,9.30
2023-03-24T10:40:37.163Z,10.20
2023-03-24T10:43:10.303Z,9.80
2023-03-24T10:45:45.958Z,10.40
2023-03-24T10:48:34.927Z,9.30
2023-03-24T10:51:08.522Z,10.00
2023-03-24T10:53:41.364Z,11.80
2023-03-24T10:56:20.349Z,9.30
2023-03-24T10:58:53.618Z,9.30
2023-03-24T11:01:30.884Z,9.90
2023-03-24T11:04:24.136Z,8.70
2023-03-24T11:07:06.306Z,7.80
2023-03-24T11:09:47.138Z,9.20
2023-03-24T11:12:28.546Z,9.30
2023-03-24T11:15:21.966Z,8.60
2023-03-24T11:18:00.329Z,8.10
2023-03-24T11:20:36.917Z,8.00
2023-03-24T11:23:15.026Z,7.90
2023-03-24T11:25:51.986Z,9.00
2023-03-24T11:28:29.193Z,8.30
2023-03-24T11:31:11.337Z,8.50
2023-03-24T11:33:52.203Z,8.20
2023-03-24T11:36:46.314Z,7.00
2023-03-24T11:39:23.504Z,6.80
2023-03-24T11:42:04.186Z,7.80
2023-03-24T11:44:47.573Z,7.20
2023-03-24T11:47:29.670Z,6.90
2023-03-24T11:50:19.195Z,7.10
2023-03-24T11:52:55.660Z,5.90
2023-03-24T11:55:38.048Z,6.80
2023-03-24T11:58:20.417Z,6.40
2023-03-24T12:00:59.133Z,6.60
2023-03-24T12:04:09.428Z,7.30
2023-03-24T12:06:54.978Z,6.70
2023-03-24T12:09:36.986Z,7.20
2023-03-24T12:12:23.460Z,9.40
2023-03-24T12:15:20.628Z,7.80
2023-03-24T12:18:11.221Z,7.20
2023-03-24T12:20:50.537Z,7.90
2023-03-24T12:23:30.461Z,6.70
2023-03-24T12:26:17.218Z,6.80
2023-03-24T12:28:59.287Z,6.40
2023-03-24T12:31:56.810Z,6.30
2023-03-24T12:34:55.428Z,7.10
2023-03-24T12:37:35.707Z,7.50
2023-03-24T12:40:33.578Z,8.20
2023-03-24T12:43:13.905Z,8.70
2023-03-24T12:45:53.043Z,5.80
2023-03-24T12:48:50.826Z,6.70
2023-03-24T12:51:33.349Z,6.20
2023-03-24T12:54:19.672Z,5.50
2023-03-24T12:56:57.632Z,4.90
2023-03-24T12:59:36.320Z,5.10
2023-03-24T13:02:28.881Z,5.80
2023-03-24T13:05:09.999Z,3.90
2023-03-24T13:07:47.765Z,8.40
2023-03-24T13:10:26.083Z,7.50
2023-03-24T13:13:01.527Z,5.10
2023-03-24T13:15:39.181Z,4.90
2023-03-24T13:18:24.548Z,4.40
2023-03-24T13:21:18.039Z,4.50
2023-03-24T13:23:57.787Z,5.30
2023-03-24T13:26:41.458Z,4.20
2023-03-24T13:29:38.425Z,4.90
2023-03-24T13:32:30.898Z,4.30
2023-03-24T13:35:12.919Z,4.60
2023-03-24T13:37:50.230Z,4.10
2023-03-24T13:40:28.533Z,5.10
2023-03-24T13:43:03.450Z,7.50
2023-03-24T13:45:43.518Z,8.40
2023-03-24T13:48:34.129Z,10.20
2023-03-24T13:51:18.990Z,11.00
2023-03-24T13:53:55.800Z,10.90
2023-03-24T13:56:34.470Z,6.10
2023-03-24T13:59:24.706Z,5.00
2023-03-24T14:02:42.548Z,4.40
2023-03-24T14:05:35.109Z,4.50
2023-03-24T14:08:19.460Z,4.40
2023-03-24T14:10:53.511Z,4.50
2023-03-24T14:13:37.303Z,3.90
2023-03-24T14:16:43.001Z,3.80
2023-03-24T14:19:31.663Z,3.70
2023-03-24T14:22:18.056Z,3.70
2023-03-24T14:25:01.277Z,4.00
2023-03-24T14:27:41.516Z,3.90
2023-03-24T14:30:30.859Z,4.00
2023-03-24T14:33:04.814Z,3.70
2023-03-24T14:35:42.382Z,4.20
2023-03-24T14:38:26.647Z,3.80
2023-03-24T14:41:07.951Z,4.10
2023-03-24T14:43:58.070Z,3.80
2023-03-24T14:46:48.241Z,6.50
2023-03-24T14:49:26.263Z,10.50
2023-03-24T14:52:11.276Z,8.40
2023-03-24T14:54:46.624Z,4.60
2023-03-24T14:57:24.514Z,3.90
2023-03-24T15:00:07.517Z,3.90
2023-03-24T15:02:42.725Z,3.80
2023-03-24T15:05:32.876Z,4.50
2023-03-24T15:08:13.737Z,3.80
2023-03-24T15:10:50.383Z,3.60
2023-03-24T15:13:41.721Z,4.00
2023-03-24T15:16:24.329Z,3.00
2023-03-24T15:19:02.084Z,3.70
2023-03-24T15:21:37.952Z,2.60
2023-03-24T15:24:32.466Z,3.10
2023-03-24T15:27:24.245Z,3.60
2023-03-24T15:30:00.909Z,3.80
2023-03-24T15:32:39.515Z,3.30
2023-03-24T15:35:18.731Z,3.30
2023-03-24T15:37:57.032Z,3.90
2023-03-24T15:40:41.916Z,5.50
2023-03-24T15:43:23.136Z,10.20
2023-03-24T15:46:11.185Z,7.60
2023-03-24T15:48:48.600Z,11.30
2023-03-24T15:51:21.467Z,7.00
2023-03-24T15:54:01.989Z,5.10
2023-03-24T15:56:37.134Z,4.70
2023-03-24T15:59:17.940Z,4.40
2023-03-24T16:01:51.145Z,3.60
2023-03-24T16:04:24.055Z,3.90
2023-03-24T16:06:58.220Z,4.50
2023-03-24T16:09:41.121Z,3.60
2023-03-24T16:12:16.497Z,4.30
2023-03-24T16:14:49.347Z,4.30
2023-03-24T16:17:22.021Z,4.80
2023-03-24T16:19:55.074Z,3.90
2023-03-24T16:22:28.396Z,4.20
2023-03-24T16:27:31.677Z,5.20
2023-03-24T16:30:04.957Z,4.50
2023-03-24T16:32:38.904Z,4.70
2023-03-24T16:35:12.887Z,7.90
2023-03-24T16:37:47.438Z,5.70
2023-03-24T16:40:30.175Z,5.80
2023-03-24T16:43:03.389Z,5.20
2023-03-24T16:48:08.466Z,5.50
2023-03-24T16:50:43.131Z,6.00
2023-03-24T16:53:16.060Z,6.20
2023-03-24T16:55:49.400Z,8.50
2023-03-24T16:58:21.850Z,9.90
2023-03-24T17:00:56.732Z,11.40
2023-03-24T17:03:30.698Z,11.60
2023-03-24T17:06:04.019Z,13.00
2023-03-24T17:08:36.692Z,14.40
2023-03-24T17:11:11.850Z,9.60
2023-03-24T17:13:45.116Z,7.30
2023-03-24T17:16:21.164Z,5.40
2023-03-24T17:18:53.690Z,4.80
2023-03-24T17:21:26.700Z,4.40
2023-03-24T17:23:59.418Z,4.80
2023-03-24T17:26:32.959Z,4.60
2023-03-24T17:29:05.335Z,4.40
2023-03-24T17:31:38.368Z,4.10
2023-03-24T17:36:50.092Z,3.90
2023-03-24T17:39:23.454Z,4.90
2023-03-24T17:44:30.478Z,5.00
2023-03-24T17:47:23.076Z,5.60
2023-03-24T17:49:55.949Z,5.50
2023-03-24T17:52:28.758Z,6.10
2023-03-24T17:55:02.026Z,6.50
2023-03-24T17:57:35.024Z,5.40
2023-03-24T18:00:12.185Z,5.90
2023-03-24T18:02:47.313Z,4.60
2023-03-24T18:05:20.036Z,4.90
2023-03-24T18:07:53.024Z,4.70
2023-03-24T18:10:25.794Z,4.90
2023-03-24T18:12:59.175Z,5.40
2023-03-24T18:15:32.353Z,5.00
2023-03-24T18:18:05.200Z,5.40
2023-03-24T18:20:39.620Z,5.60
2023-03-24T18:23:12.212Z,6.10
2023-03-24T18:25:44.826Z,5.10
2023-03-24T18:28:17.311Z,5.50
2023-03-24T18:30:50.875Z,5.70
2023-03-24T18:33:23.856Z,5.90
2023-03-24T18:35:57.403Z,5.70
2023-03-24T18:38:29.959Z,5.60
2023-03-24T18:41:04.841Z,5.90
2023-03-24T18:43:39.784Z,5.80
2023-03-24T18:46:13.290Z,5.40
2023-03-24T18:51:17.414Z,6.30
2023-03-24T18:53:50.143Z,6.80
2023-03-24T18:56:24.523Z,7.10
2023-03-24T18:58:57.282Z,7.00
2023-03-24T19:01:30.650Z,7.60
2023-03-24T19:04:03.374Z,6.90
2023-03-24T19:06:37.655Z,7.00
2023-03-24T19:09:11.358Z,7.50
2023-03-24T19:11:45.386Z,7.70
2023-03-24T19:14:18.026Z,8.50
2023-03-24T19:16:50.704Z,8.30
2023-03-24T19:19:23.428Z,9.20
2023-03-24T19:21:56.468Z,8.30
2023-03-24T19:24:30.133Z,7.80
2023-03-24T19:27:02.948Z,8.20
2023-03-24T19:29:36.329Z,8.10
2023-03-24T19:32:08.999Z,7.80
2023-03-24T19:34:41.978Z,8.10
2023-03-24T19:37:14.598Z,8.10
2023-03-24T19:39:47.498Z,8.50
2023-03-24T19:42:20.064Z,7.70
2023-03-24T19:44:53.729Z,8.20
2023-03-24T19:47:34.789Z,7.60
2023-03-24T19:50:16.819Z,6.80
2023-03-24T19:52:50.143Z,7.30
2023-03-24T19:55:42.920Z,7.30
2023-03-24T19:58:16.369Z,7.40
2023-03-24T20:03:20.103Z,7.00
2023-03-24T20:05:53.250Z,7.30
2023-03-24T20:08:26.398Z,7.30
2023-03-24T20:10:59.501Z,7.90
2023-03-24T20:13:37.095Z,8.30
2023-03-24T20:16:15.155Z,7.70
2023-03-24T20:18:48.828Z,7.40
2023-03-24T20:21:42.854Z,7.70
2023-03-24T20:24:27.587Z,8.80
2023-03-24T20:27:01.329Z,8.30
2023-03-24T20:29:34.448Z,9.80
2023-03-24T20:32:07.607Z,9.10
2023-03-24T20:34:40.549Z,8.30
2023-03-24T20:37:13.346Z,8.60
2023-03-24T20:39:49.323Z,9.80
2023-03-24T20:42:24.765Z,9.80
2023-03-24T20:45:15.223Z,10.10
2023-03-24T20:47:48.459Z,9.10
2023-03-24T20:50:21.665Z,9.30
2023-03-24T20:55:27.353Z,8.90
2023-03-24T20:58:01.804Z,9.60
2023-03-24T21:00:34.856Z,8.60
2023-03-24T21:03:08.428Z,9.30
2023-03-24T21:05:42.432Z,8.80
2023-03-24T21:08:14.820Z,8.70
2023-03-24T21:10:47.980Z,9.60
2023-03-24T21:13:21.786Z,10.10
2023-03-24T21:15:54.788Z,9.50
2023-03-24T21:18:28.452Z,9.50
2023-03-24T21:21:04.195Z,8.60
2023-03-24T21:23:39.574Z,10.20
2023-03-24T21:26:14.767Z,10.20
2023-03-24T21:28:47.797Z,9.90
2023-03-24T21:31:23.779Z,9.60
2023-03-24T21:33:58.005Z,10.70
2023-03-24T21:36:31.417Z,10.10
2023-03-24T21:39:07.225Z,9.80
2023-03-24T21:41:40.298Z,9.70
2023-03-24T21:44:13.158Z,9.70
2023-03-24T21:46:48.538Z,8.60
2023-03-24T21:49:23.073Z,9.00
2023-03-24T21:51:57.199Z,8.00
2023-03-24T21:54:31.024Z,8.00
2023-03-24T21:57:04.386Z,7.00
2023-03-24T21:59:40.179Z,7.70
2023-03-24T22:02:17.907Z,7.00
2023-03-24T22:04:50.636Z,7.90
2023-03-24T22:07:24.958Z,8.10
2023-03-24T22:09:58.276Z,8.30
2023-03-24T22:12:30.830Z,8.00
2023-03-24T22:15:04.287Z,7.40
2023-03-24T22:17:37.461Z,7.50
2023-03-24T22:20:14.999Z,7.70
2023-03-24T22:22:47.914Z,7.30
2023-03-24T22:25:21.832Z,8.80
2023-03-24T22:27:56.518Z,8.30
2023-03-24T22:30:29.025Z,8.30
2023-03-24T22:33:01.686Z,9.20
2023-03-24T22:35:34.724Z,8.10
2023-03-24T22:38:08.085Z,8.10
2023-03-24T22:40:41.785Z,7.70
2023-03-24T22:43:14.636Z,7.80
2023-03-24T22:45:47.639Z,7.60
2023-03-24T22:48:20.203Z,7.10
2023-03-24T22:50:54.587Z,6.90
2023-03-24T22:53:27.638Z,7.30
2023-03-24T22:56:00.110Z,7.30
2023-03-24T22:58:32.899Z,7.10
2023-03-24T23:01:06.421Z,7.50
2023-03-24T23:03:42.040Z,8.10
2023-03-24T23:06:16.217Z,8.40
2023-03-24T23:08:49.992Z,8.60
2023-03-24T23:11:22.913Z,9.10
2023-03-24T23:14:05.714Z,9.20
2023-03-24T23:16:39.854Z,8.10
2023-03-24T23:19:12.941Z,8.70
2023-03-24T23:21:46.863Z,7.90
2023-03-24T23:24:19.973Z,8.60
2023-03-24T23:26:52.514Z,9.00
2023-03-24T23:29:25.092Z,8.70
2023-03-24T23:31:57.844Z,8.50
2023-03-24T23:34:30.749Z,7.70
2023-03-24T23:37:04.225Z,8.30
2023-03-24T23:42:09.859Z,7.20
2023-03-24T23:44:42.432Z,7.20
2023-03-24T23:47:15.167Z,6.60
2023-03-24T23:49:47.925Z,7.20
2023-03-24T23:52:20.805Z,7.30
2023-03-24T23:54:54.437Z,6.50
2023-03-24T23:57:26.992Z,6.90
